sensor_id;sensor_type;location;lat;lon;timestamp;temperature;humidity
36372;DHT22;22398;51.346;12.372;2023-06-04T00:01:53;11.70;52.90
36372;DHT22;22398;51.346;12.372;2023-06-04T00:06:58;11.50;53.20
36372;DHT22;22398;51.346;12.372;2023-06-04T00:12:01;11.50;53.50
36372;DHT22;22398;51.346;12.372;2023-06-04T00:17:05;11.40;53.70
36372;DHT22;22398;51.346;12.372;2023-06-04T00:22:10;11.20;54.00
36372;DHT22;22398;51.346;12.372;2023-06-04T00:27:13;11.10;54.20
36372;DHT22;22398;51.346;12.372;2023-06-04T00:32:17;11.20;54.60
36372;DHT22;22398;51.346;12.372;2023-06-04T00:37:23;11.00;54.80
36372;DHT22;22398;51.346;12.372;2023-06-04T00:42:27;11.20;55.20
36372;DHT22;22398;51.346;12.372;2023-06-04T00:47:31;11.00;55.40
36372;DHT22;22398;51.346;12.372;2023-06-04T00:52:36;11.00;55.50
36372;DHT22;22398;51.346;12.372;2023-06-04T00:57:40;10.90;55.70
36372;DHT22;22398;51.346;12.372;2023-06-04T01:02:46;10.90;56.00
36372;DHT22;22398;51.346;12.372;2023-06-04T01:07:55;10.90;56.30
36372;DHT22;22398;51.346;12.372;2023-06-04T01:13:00;10.90;56.40
36372;DHT22;22398;51.346;12.372;2023-06-04T01:18:03;10.80;56.60
36372;DHT22;22398;51.346;12.372;2023-06-04T01:23:28;10.70;56.70
36372;DHT22;22398;51.346;12.372;2023-06-04T01:28:37;10.60;57.00
36372;DHT22;22398;51.346;12.372;2023-06-04T01:33:41;10.50;57.20
36372;DHT22;22398;51.346;12.372;2023-06-04T01:38:46;10.30;57.50
36372;DHT22;22398;51.346;12.372;2023-06-04T01:43:50;10.20;57.90
36372;DHT22;22398;51.346;12.372;2023-06-04T01:48:54;10.20;58.30
36372;DHT22;22398;51.346;12.372;2023-06-04T01:53:59;10.10;58.60
36372;DHT22;22398;51.346;12.372;2023-06-04T01:59:03;10.00;58.80
36372;DHT22;22398;51.346;12.372;2023-06-04T02:04:06;10.00;59.00
36372;DHT22;22398;51.346;12.372;2023-06-04T02:09:11;9.90;59.30
36372;DHT22;22398;51.346;12.372;2023-06-04T02:14:19;9.80;59.50
36372;DHT22;22398;51.346;12.372;2023-06-04T02:19:26;9.70;59.80
36372;DHT22;22398;51.346;12.372;2023-06-04T02:24:31;9.60;60.00
36372;DHT22;22398;51.346;12.372;2023-06-04T02:29:35;9.50;60.30
36372;DHT22;22398;51.346;12.372;2023-06-04T02:34:38;9.40;60.40
36372;DHT22;22398;51.346;12.372;2023-06-04T02:39:43;9.40;60.70
36372;DHT22;22398;51.346;12.372;2023-06-04T02:44:46;9.30;60.90
36372;DHT22;22398;51.346;12.372;2023-06-04T02:49:49;9.30;61.10
36372;DHT22;22398;51.346;12.372;2023-06-04T02:54:54;9.20;61.40
36372;DHT22;22398;51.346;12.372;2023-06-04T02:59:58;9.10;61.60
36372;DHT22;22398;51.346;12.372;2023-06-04T03:05:02;9.10;61.90
36372;DHT22;22398;51.346;12.372;2023-06-04T03:10:08;9.00;62.10
36372;DHT22;22398;51.346;12.372;2023-06-04T03:15:12;8.50;62.00
36372;DHT22;22398;51.346;12.372;2023-06-04T03:20:15;9.00;62.60
36372;DHT22;22398;51.346;12.372;2023-06-04T03:25:20;9.10;62.90
36372;DHT22;22398;51.346;12.372;2023-06-04T03:30:24;9.20;62.90
36372;DHT22;22398;51.346;12.372;2023-06-04T03:35:33;9.20;63.00
36372;DHT22;22398;51.346;12.372;2023-06-04T03:40:38;9.20;63.50
36372;DHT22;22398;51.346;12.372;2023-06-04T03:45:43;9.20;63.10
36372;DHT22;22398;51.346;12.372;2023-06-04T03:50:46;9.20;63.20
36372;DHT22;22398;51.346;12.372;2023-06-04T03:55:53;9.30;63.40
36372;DHT22;22398;51.346;12.372;2023-06-04T04:00:57;9.40;63.50
36372;DHT22;22398;51.346;12.372;2023-06-04T04:06:01;9.50;63.60
36372;DHT22;22398;51.346;12.372;2023-06-04T04:11:06;9.60;63.50
36372;DHT22;22398;51.346;12.372;2023-06-04T04:16:09;9.60;63.40
36372;DHT22;22398;51.346;12.372;2023-06-04T04:21:14;9.60;63.40
36372;DHT22;22398;51.346;12.372;2023-06-04T04:26:21;9.60;63.40
36372;DHT22;22398;51.346;12.372;2023-06-04T04:31:28;9.70;63.40
36372;DHT22;22398;51.346;12.372;2023-06-04T04:36:33;9.80;63.30
36372;DHT22;22398;51.346;12.372;2023-06-04T04:41:40;10.00;63.70
36372;DHT22;22398;51.346;12.372;2023-06-04T04:46:44;10.10;63.10
36372;DHT22;22398;51.346;12.372;2023-06-04T04:51:47;10.30;63.00
36372;DHT22;22398;51.346;12.372;2023-06-04T04:56:53;11.00;64.10
36372;DHT22;22398;51.346;12.372;2023-06-04T05:02:16;14.30;62.30
36372;DHT22;22398;51.346;12.372;2023-06-04T05:07:21;17.30;57.20
36372;DHT22;22398;51.346;12.372;2023-06-04T05:12:29;19.20;53.50
36372;DHT22;22398;51.346;12.372;2023-06-04T05:17:34;20.40;50.70
36372;DHT22;22398;51.346;12.372;2023-06-04T05:22:43;19.40;48.20
36372;DHT22;22398;51.346;12.372;2023-06-04T05:27:49;17.10;49.30
36372;DHT22;22398;51.346;12.372;2023-06-04T05:32:55;15.50;50.70
36372;DHT22;22398;51.346;12.372;2023-06-04T05:38:00;14.40;51.90
36372;DHT22;22398;51.346;12.372;2023-06-04T05:43:07;13.70;53.10
36372;DHT22;22398;51.346;12.372;2023-06-04T05:48:11;13.40;54.10
36372;DHT22;22398;51.346;12.372;2023-06-04T05:53:14;13.20;54.90
36372;DHT22;22398;51.346;12.372;2023-06-04T05:58:22;13.30;55.40
36372;DHT22;22398;51.346;12.372;2023-06-04T06:03:25;13.30;55.70
36372;DHT22;22398;51.346;12.372;2023-06-04T06:08:30;13.40;56.00
36372;DHT22;22398;51.346;12.372;2023-06-04T06:13:35;13.60;56.10
36372;DHT22;22398;51.346;12.372;2023-06-04T06:18:39;13.70;56.20
36372;DHT22;22398;51.346;12.372;2023-06-04T06:23:42;13.90;56.10
36372;DHT22;22398;51.346;12.372;2023-06-04T06:28:47;14.10;56.20
36372;DHT22;22398;51.346;12.372;2023-06-04T06:33:50;14.20;56.20
36372;DHT22;22398;51.346;12.372;2023-06-04T06:38:54;14.40;56.10
36372;DHT22;22398;51.346;12.372;2023-06-04T06:43:59;14.60;55.90
36372;DHT22;22398;51.346;12.372;2023-06-04T06:49:03;14.80;55.70
36372;DHT22;22398;51.346;12.372;2023-06-04T06:54:08;15.00;55.50
36372;DHT22;22398;51.346;12.372;2023-06-04T06:59:13;15.20;55.40
36372;DHT22;22398;51.346;12.372;2023-06-04T07:04:17;15.40;55.20
36372;DHT22;22398;51.346;12.372;2023-06-04T07:09:21;15.60;54.90
36372;DHT22;22398;51.346;12.372;2023-06-04T07:14:25;15.80;54.80
36372;DHT22;22398;51.346;12.372;2023-06-04T07:19:29;16.10;54.30
36372;DHT22;22398;51.346;12.372;2023-06-04T07:24:32;16.50;53.50
36372;DHT22;22398;51.346;12.372;2023-06-04T07:29:37;16.80;52.50
36372;DHT22;22398;51.346;12.372;2023-06-04T07:34:40;17.20;51.50
36372;DHT22;22398;51.346;12.372;2023-06-04T07:39:43;17.60;50.60
36372;DHT22;22398;51.346;12.372;2023-06-04T07:44:48;17.90;49.80
36372;DHT22;22398;51.346;12.372;2023-06-04T07:49:52;18.20;49.20
36372;DHT22;22398;51.346;12.372;2023-06-04T07:55:05;18.60;48.70
36372;DHT22;22398;51.346;12.372;2023-06-04T08:00:11;19.10;48.30
36372;DHT22;22398;51.346;12.372;2023-06-04T08:05:15;19.50;47.70
36372;DHT22;22398;51.346;12.372;2023-06-04T08:10:18;19.60;47.00
36372;DHT22;22398;51.346;12.372;2023-06-04T08:15:23;19.80;46.50
36372;DHT22;22398;51.346;12.372;2023-06-04T08:20:27;20.00;46.00
36372;DHT22;22398;51.346;12.372;2023-06-04T08:25:31;20.10;45.20
36372;DHT22;22398;51.346;12.372;2023-06-04T08:30:36;20.00;44.30
36372;DHT22;22398;51.346;12.372;2023-06-04T08:35:41;20.30;44.30
36372;DHT22;22398;51.346;12.372;2023-06-04T08:40:52;20.40;43.50
36372;DHT22;22398;51.346;12.372;2023-06-04T08:45:59;20.80;43.20
36372;DHT22;22398;51.346;12.372;2023-06-04T08:51:08;21.00;42.70
36372;DHT22;22398;51.346;12.372;2023-06-04T08:56:12;21.20;42.00
36372;DHT22;22398;51.346;12.372;2023-06-04T09:01:17;21.30;41.50
36372;DHT22;22398;51.346;12.372;2023-06-04T09:06:23;21.20;41.30
36372;DHT22;22398;51.346;12.372;2023-06-04T09:11:33;21.20;40.90
36372;DHT22;22398;51.346;12.372;2023-06-04T09:16:45;21.30;41.20
36372;DHT22;22398;51.346;12.372;2023-06-04T09:21:50;21.00;40.60
36372;DHT22;22398;51.346;12.372;2023-06-04T09:26:54;20.90;40.50
36372;DHT22;22398;51.346;12.372;2023-06-04T09:31:59;21.20;41.00
36372;DHT22;22398;51.346;12.372;2023-06-04T09:37:13;21.40;40.60
36372;DHT22;22398;51.346;12.372;2023-06-04T09:42:17;21.20;40.20
36372;DHT22;22398;51.346;12.372;2023-06-04T09:47:21;21.30;41.10
36372;DHT22;22398;51.346;12.372;2023-06-04T09:52:32;21.50;40.30
36372;DHT22;22398;51.346;12.372;2023-06-04T09:57:35;21.50;39.80
36372;DHT22;22398;51.346;12.372;2023-06-04T10:02:44;21.70;39.60
36372;DHT22;22398;51.346;12.372;2023-06-04T10:07:51;21.90;39.40
36372;DHT22;22398;51.346;12.372;2023-06-04T10:12:59;22.10;39.20
36372;DHT22;22398;51.346;12.372;2023-06-04T10:18:05;22.00;38.80
36372;DHT22;22398;51.346;12.372;2023-06-04T10:23:09;21.80;38.50
36372;DHT22;22398;51.346;12.372;2023-06-04T10:28:13;21.50;38.50
36372;DHT22;22398;51.346;12.372;2023-06-04T10:33:20;21.80;38.30
36372;DHT22;22398;51.346;12.372;2023-06-04T10:38:26;21.60;37.60
36372;DHT22;22398;51.346;12.372;2023-06-04T10:43:33;21.50;37.50
36372;DHT22;22398;51.346;12.372;2023-06-04T10:48:47;21.40;37.40
36372;DHT22;22398;51.346;12.372;2023-06-04T10:53:51;21.50;37.20
36372;DHT22;22398;51.346;12.372;2023-06-04T10:58:55;21.50;36.80
36372;DHT22;22398;51.346;12.372;2023-06-04T11:04:00;21.40;36.70
36372;DHT22;22398;51.346;12.372;2023-06-04T11:09:05;21.50;36.80
36372;DHT22;22398;51.346;12.372;2023-06-04T11:14:09;21.70;36.30
36372;DHT22;22398;51.346;12.372;2023-06-04T11:19:16;21.80;36.00
36372;DHT22;22398;51.346;12.372;2023-06-04T11:24:20;21.50;36.20
36372;DHT22;22398;51.346;12.372;2023-06-04T11:29:24;21.70;36.30
36372;DHT22;22398;51.346;12.372;2023-06-04T11:34:30;21.80;36.10
36372;DHT22;22398;51.346;12.372;2023-06-04T11:39:37;21.90;36.00
36372;DHT22;22398;51.346;12.372;2023-06-04T11:44:42;22.10;35.80
36372;DHT22;22398;51.346;12.372;2023-06-04T11:49:55;22.10;35.90
36372;DHT22;22398;51.346;12.372;2023-06-04T11:54:59;21.70;36.10
36372;DHT22;22398;51.346;12.372;2023-06-04T12:00:04;21.90;36.50
36372;DHT22;22398;51.346;12.372;2023-06-04T12:05:13;22.30;36.40
36372;DHT22;22398;51.346;12.372;2023-06-04T12:10:18;22.40;36.00
36372;DHT22;22398;51.346;12.372;2023-06-04T12:15:22;22.40;35.70
36372;DHT22;22398;51.346;12.372;2023-06-04T12:20:35;22.40;35.40
36372;DHT22;22398;51.346;12.372;2023-06-04T12:25:39;22.20;35.40
36372;DHT22;22398;51.346;12.372;2023-06-04T12:30:43;22.10;35.60
36372;DHT22;22398;51.346;12.372;2023-06-04T12:35:48;22.20;35.80
36372;DHT22;22398;51.346;12.372;2023-06-04T12:40:52;22.50;35.60
36372;DHT22;22398;51.346;12.372;2023-06-04T12:45:55;22.50;35.40
36372;DHT22;22398;51.346;12.372;2023-06-04T12:51:01;22.60;35.40
36372;DHT22;22398;51.346;12.372;2023-06-04T12:56:04;22.60;35.30
36372;DHT22;22398;51.346;12.372;2023-06-04T13:01:08;22.70;34.80
36372;DHT22;22398;51.346;12.372;2023-06-04T13:06:15;22.60;35.80
36372;DHT22;22398;51.346;12.372;2023-06-04T13:11:18;22.40;35.50
36372;DHT22;22398;51.346;12.372;2023-06-04T13:16:22;22.50;35.70
36372;DHT22;22398;51.346;12.372;2023-06-04T13:21:28;22.80;35.40
36372;DHT22;22398;51.346;12.372;2023-06-04T13:26:31;22.60;34.40
36372;DHT22;22398;51.346;12.372;2023-06-04T13:31:35;22.60;34.40
36372;DHT22;22398;51.346;12.372;2023-06-04T13:36:42;22.80;34.80
36372;DHT22;22398;51.346;12.372;2023-06-04T13:41:46;22.90;34.50
36372;DHT22;22398;51.346;12.372;2023-06-04T13:46:49;22.90;34.00
36372;DHT22;22398;51.346;12.372;2023-06-04T13:51:54;22.80;34.40
36372;DHT22;22398;51.346;12.372;2023-06-04T13:57:01;22.90;34.20
36372;DHT22;22398;51.346;12.372;2023-06-04T14:02:06;23.10;34.20
36372;DHT22;22398;51.346;12.372;2023-06-04T14:07:11;23.10;34.10
36372;DHT22;22398;51.346;12.372;2023-06-04T14:12:15;23.20;34.10
36372;DHT22;22398;51.346;12.372;2023-06-04T14:17:20;23.10;33.70
36372;DHT22;22398;51.346;12.372;2023-06-04T14:22:25;22.90;33.60
36372;DHT22;22398;51.346;12.372;2023-06-04T14:27:29;22.80;33.60
36372;DHT22;22398;51.346;12.372;2023-06-04T14:32:32;22.80;33.70
36372;DHT22;22398;51.346;12.372;2023-06-04T14:37:38;22.90;33.70
36372;DHT22;22398;51.346;12.372;2023-06-04T14:42:42;23.10;33.90
36372;DHT22;22398;51.346;12.372;2023-06-04T14:47:46;23.20;33.90
36372;DHT22;22398;51.346;12.372;2023-06-04T14:52:57;23.20;33.50
36372;DHT22;22398;51.346;12.372;2023-06-04T14:58:00;23.20;33.90
36372;DHT22;22398;51.346;12.372;2023-06-04T15:03:05;23.10;34.00
36372;DHT22;22398;51.346;12.372;2023-06-04T15:08:10;23.30;34.00
36372;DHT22;22398;51.346;12.372;2023-06-04T15:13:13;23.30;33.70
36372;DHT22;22398;51.346;12.372;2023-06-04T15:18:17;23.30;33.70
36372;DHT22;22398;51.346;12.372;2023-06-04T15:23:22;23.40;33.80
36372;DHT22;22398;51.346;12.372;2023-06-04T15:28:26;23.30;33.70
36372;DHT22;22398;51.346;12.372;2023-06-04T15:33:30;23.50;33.40
36372;DHT22;22398;51.346;12.372;2023-06-04T15:38:34;23.60;33.40
36372;DHT22;22398;51.346;12.372;2023-06-04T15:43:38;23.70;33.30
36372;DHT22;22398;51.346;12.372;2023-06-04T15:48:42;24.00;33.10
36372;DHT22;22398;51.346;12.372;2023-06-04T15:53:47;24.40;32.80
36372;DHT22;22398;51.346;12.372;2023-06-04T15:58:50;24.80;32.60
36372;DHT22;22398;51.346;12.372;2023-06-04T16:03:54;25.40;32.60
36372;DHT22;22398;51.346;12.372;2023-06-04T16:08:59;25.50;32.30
36372;DHT22;22398;51.346;12.372;2023-06-04T16:14:03;26.00;32.50
36372;DHT22;22398;51.346;12.372;2023-06-04T16:19:07;26.40;32.50
36372;DHT22;22398;51.346;12.372;2023-06-04T16:24:12;26.60;32.20
36372;DHT22;22398;51.346;12.372;2023-06-04T16:29:15;26.70;32.00
36372;DHT22;22398;51.346;12.372;2023-06-04T16:34:19;27.10;32.00
36372;DHT22;22398;51.346;12.372;2023-06-04T16:39:24;27.20;31.90
36372;DHT22;22398;51.346;12.372;2023-06-04T16:44:30;27.60;31.70
36372;DHT22;22398;51.346;12.372;2023-06-04T16:49:33;27.70;31.20
36372;DHT22;22398;51.346;12.372;2023-06-04T16:54:38;27.80;31.20
36372;DHT22;22398;51.346;12.372;2023-06-04T16:59:45;27.90;31.20
36372;DHT22;22398;51.346;12.372;2023-06-04T17:04:48;27.80;31.00
36372;DHT22;22398;51.346;12.372;2023-06-04T17:09:53;27.50;31.00
36372;DHT22;22398;51.346;12.372;2023-06-04T17:14:56;27.00;30.90
36372;DHT22;22398;51.346;12.372;2023-06-04T17:20:00;27.10;31.00
36372;DHT22;22398;51.346;12.372;2023-06-04T17:25:06;27.40;30.90
36372;DHT22;22398;51.346;12.372;2023-06-04T17:30:10;27.20;30.80
36372;DHT22;22398;51.346;12.372;2023-06-04T17:35:14;26.90;30.80
36372;DHT22;22398;51.346;12.372;2023-06-04T17:40:18;26.90;31.00
36372;DHT22;22398;51.346;12.372;2023-06-04T17:45:22;26.60;30.80
36372;DHT22;22398;51.346;12.372;2023-06-04T17:50:26;26.40;30.80
36372;DHT22;22398;51.346;12.372;2023-06-04T17:55:31;26.20;30.80
36372;DHT22;22398;51.346;12.372;2023-06-04T18:00:35;26.20;30.90
36372;DHT22;22398;51.346;12.372;2023-06-04T18:05:38;26.60;30.90
36372;DHT22;22398;51.346;12.372;2023-06-04T18:10:43;26.60;30.80
36372;DHT22;22398;51.346;12.372;2023-06-04T18:15:47;26.10;30.80
36372;DHT22;22398;51.346;12.372;2023-06-04T18:20:52;25.70;31.10
36372;DHT22;22398;51.346;12.372;2023-06-04T18:25:57;25.40;31.30
36372;DHT22;22398;51.346;12.372;2023-06-04T18:31:01;25.20;31.40
36372;DHT22;22398;51.346;12.372;2023-06-04T18:36:05;24.80;31.60
36372;DHT22;22398;51.346;12.372;2023-06-04T18:41:10;24.40;31.80
36372;DHT22;22398;51.346;12.372;2023-06-04T18:46:14;23.70;32.10
36372;DHT22;22398;51.346;12.372;2023-06-04T18:51:18;22.90;32.60
36372;DHT22;22398;51.346;12.372;2023-06-04T18:56:25;22.30;33.10
36372;DHT22;22398;51.346;12.372;2023-06-04T19:01:30;21.80;33.50
36372;DHT22;22398;51.346;12.372;2023-06-04T19:06:35;21.40;33.90
36372;DHT22;22398;51.346;12.372;2023-06-04T19:11:40;21.00;34.30
36372;DHT22;22398;51.346;12.372;2023-06-04T19:16:43;20.60;34.70
36372;DHT22;22398;51.346;12.372;2023-06-04T19:21:52;20.30;35.10
36372;DHT22;22398;51.346;12.372;2023-06-04T19:26:57;20.10;35.50
36372;DHT22;22398;51.346;12.372;2023-06-04T19:32:00;19.80;36.00
36372;DHT22;22398;51.346;12.372;2023-06-04T19:37:04;19.60;36.50
36372;DHT22;22398;51.346;12.372;2023-06-04T19:42:10;19.30;36.90
36372;DHT22;22398;51.346;12.372;2023-06-04T19:47:13;19.00;36.90
36372;DHT22;22398;51.346;12.372;2023-06-04T19:52:17;18.90;37.40
36372;DHT22;22398;51.346;12.372;2023-06-04T19:57:22;18.70;37.50
36372;DHT22;22398;51.346;12.372;2023-06-04T20:07:30;18.30;38.40
36372;DHT22;22398;51.346;12.372;2023-06-04T20:17:42;17.80;39.40
36372;DHT22;22398;51.346;12.372;2023-06-04T20:22:45;17.70;40.20
36372;DHT22;22398;51.346;12.372;2023-06-04T20:27:51;17.40;40.20
36372;DHT22;22398;51.346;12.372;2023-06-04T20:32:54;17.30;41.10
36372;DHT22;22398;51.346;12.372;2023-06-04T20:43:04;17.10;41.50
36372;DHT22;22398;51.346;12.372;2023-06-04T20:53:12;16.90;42.30
36372;DHT22;22398;51.346;12.372;2023-06-04T20:58:18;16.70;42.50
36372;DHT22;22398;51.346;12.372;2023-06-04T21:03:22;16.60;43.20
36372;DHT22;22398;51.346;12.372;2023-06-04T21:08:27;16.50;43.50
36372;DHT22;22398;51.346;12.372;2023-06-04T21:18:37;16.20;43.70
36372;DHT22;22398;51.346;12.372;2023-06-04T21:23:40;16.10;44.20
36372;DHT22;22398;51.346;12.372;2023-06-04T21:49:03;15.70;45.60
36372;DHT22;22398;51.346;12.372;2023-06-04T21:54:07;15.50;46.00
36372;DHT22;22398;51.346;12.372;2023-06-04T21:59:13;15.30;46.40
36372;DHT22;22398;51.346;12.372;2023-06-04T22:04:16;15.30;46.60
36372;DHT22;22398;51.346;12.372;2023-06-04T22:09:20;15.20;47.10
36372;DHT22;22398;51.346;12.372;2023-06-04T22:14:25;15.10;47.30
36372;DHT22;22398;51.346;12.372;2023-06-04T22:19:28;15.10;47.80
36372;DHT22;22398;51.346;12.372;2023-06-04T22:24:32;15.10;47.90
36372;DHT22;22398;51.346;12.372;2023-06-04T22:29:37;15.10;48.00
36372;DHT22;22398;51.346;12.372;2023-06-04T22:34:42;14.90;48.40
36372;DHT22;22398;51.346;12.372;2023-06-04T22:39:45;14.90;48.40
36372;DHT22;22398;51.346;12.372;2023-06-04T22:44:50;14.70;48.80
36372;DHT22;22398;51.346;12.372;2023-06-04T22:49:54;14.70;48.80
36372;DHT22;22398;51.346;12.372;2023-06-04T22:54:58;14.60;49.20
36372;DHT22;22398;51.346;12.372;2023-06-04T23:00:06;14.50;49.60
36372;DHT22;22398;51.346;12.372;2023-06-04T23:05:10;14.60;49.70
36372;DHT22;22398;51.346;12.372;2023-06-04T23:10:14;14.50;49.80
36372;DHT22;22398;51.346;12.372;2023-06-04T23:15:21;14.40;49.80
36372;DHT22;22398;51.346;12.372;2023-06-04T23:20:25;14.40;50.20
36372;DHT22;22398;51.346;12.372;2023-06-04T23:25:29;14.40;50.40
36372;DHT22;22398;51.346;12.372;2023-06-04T23:30:34;14.20;50.50
36372;DHT22;22398;51.346;12.372;2023-06-04T23:35:38;14.10;50.40
36372;DHT22;22398;51.346;12.372;2023-06-04T23:40:42;14.00;50.90
36372;DHT22;22398;51.346;12.372;2023-06-04T23:45:47;13.80;51.10
36372;DHT22;22398;51.346;12.372;2023-06-04T23:50:51;13.80;51.40
36372;DHT22;22398;51.346;12.372;2023-06-04T23:55:54;13.70;51.70
